sensor_id;sensor_type;location;lat;lon;timestamp;temperature;humidity
11573;DHT22;5842;52.426;4.886;2024-03-25T15:48:45;12.00;99.90
11573;DHT22;5842;52.426;4.886;2024-03-25T15:51:11;12.00;99.90
11573;DHT22;5842;52.426;4.886;2024-03-25T15:53:37;11.80;99.90
11573;DHT22;5842;52.426;4.886;2024-03-25T15:56:04;11.80;99.90
11573;DHT22;5842;52.426;4.886;2024-03-25T15:58:30;11.60;99.90
11573;DHT22;5842;52.426;4.886;2024-03-25T16:00:59;11.30;99.90
11573;DHT22;5842;52.426;4.886;2024-03-25T16:03:26;11.20;99.90
11573;DHT22;5842;52.426;4.886;2024-03-25T16:05:52;11.10;99.90
11573;DHT22;5842;52.426;4.886;2024-03-25T16:08:19;11.00;99.90
11573;DHT22;5842;52.426;4.886;2024-03-25T16:10:45;11.00;99.90
11573;DHT22;5842;52.426;4.886;2024-03-25T16:13:10;11.10;99.90
11573;DHT22;5842;52.426;4.886;2024-03-25T16:15:37;11.00;99.90
11573;DHT22;5842;52.426;4.886;2024-03-25T16:18:03;11.00;99.90
11573;DHT22;5842;52.426;4.886;2024-03-25T16:20:30;11.10;99.90
11573;DHT22;5842;52.426;4.886;2024-03-25T16:22:57;11.10;99.90
11573;DHT22;5842;52.426;4.886;2024-03-25T16:25:23;11.00;99.90
11573;DHT22;5842;52.426;4.886;2024-03-25T16:27:49;11.00;99.90
11573;DHT22;5842;52.426;4.886;2024-03-25T16:30:15;10.90;99.90
11573;DHT22;5842;52.426;4.886;2024-03-25T16:32:41;10.80;99.90
11573;DHT22;5842;52.426;4.886;2024-03-25T16:35:07;10.70;99.90
11573;DHT22;5842;52.426;4.886;2024-03-25T16:37:35;10.70;99.90
11573;DHT22;5842;52.426;4.886;2024-03-25T16:40:01;10.60;99.90
11573;DHT22;5842;52.426;4.886;2024-03-25T16:42:27;10.60;99.90
11573;DHT22;5842;52.426;4.886;2024-03-25T16:44:53;10.50;99.90
11573;DHT22;5842;52.426;4.886;2024-03-25T16:47:19;10.50;99.90
11573;DHT22;5842;52.426;4.886;2024-03-25T16:49:45;10.50;99.90
11573;DHT22;5842;52.426;4.886;2024-03-25T16:52:11;10.50;99.90
11573;DHT22;5842;52.426;4.886;2024-03-25T16:54:38;10.40;99.90
11573;DHT22;5842;52.426;4.886;2024-03-25T16:57:04;10.40;99.90
11573;DHT22;5842;52.426;4.886;2024-03-25T16:59:30;10.30;99.90
11573;DHT22;5842;52.426;4.886;2024-03-25T17:01:56;10.30;99.90
11573;DHT22;5842;52.426;4.886;2024-03-25T17:04:22;10.20;99.90
11573;DHT22;5842;52.426;4.886;2024-03-25T17:06:48;10.20;99.90
11573;DHT22;5842;52.426;4.886;2024-03-25T17:09:14;10.10;99.90
11573;DHT22;5842;52.426;4.886;2024-03-25T17:11:41;10.10;99.90
11573;DHT22;5842;52.426;4.886;2024-03-25T17:14:07;10.00;99.90
11573;DHT22;5842;52.426;4.886;2024-03-25T17:16:34;9.90;99.90
11573;DHT22;5842;52.426;4.886;2024-03-25T17:19:00;9.90;99.90
11573;DHT22;5842;52.426;4.886;2024-03-25T17:21:27;9.80;99.90
11573;DHT22;5842;52.426;4.886;2024-03-25T17:23:53;9.80;99.90
11573;DHT22;5842;52.426;4.886;2024-03-25T17:26:19;9.60;99.90
11573;DHT22;5842;52.426;4.886;2024-03-25T17:28:47;9.50;99.90
11573;DHT22;5842;52.426;4.886;2024-03-25T17:31:13;9.40;99.90
11573;DHT22;5842;52.426;4.886;2024-03-25T17:33:39;9.40;99.90
11573;DHT22;5842;52.426;4.886;2024-03-25T17:36:06;9.30;99.90
11573;DHT22;5842;52.426;4.886;2024-03-25T17:38:32;9.20;99.90
11573;DHT22;5842;52.426;4.886;2024-03-25T17:40:58;9.10;99.90
11573;DHT22;5842;52.426;4.886;2024-03-25T17:43:24;9.00;99.90
11573;DHT22;5842;52.426;4.886;2024-03-25T17:45:52;8.90;99.90
11573;DHT22;5842;52.426;4.886;2024-03-25T17:48:19;8.80;99.90
11573;DHT22;5842;52.426;4.886;2024-03-25T17:50:45;8.70;99.90
11573;DHT22;5842;52.426;4.886;2024-03-25T17:53:11;8.60;99.90
11573;DHT22;5842;52.426;4.886;2024-03-25T17:55:37;8.60;99.90
11573;DHT22;5842;52.426;4.886;2024-03-25T17:58:03;8.40;99.90
11573;DHT22;5842;52.426;4.886;2024-03-25T18:00:29;8.30;99.90
11573;DHT22;5842;52.426;4.886;2024-03-25T18:02:56;8.20;99.90
11573;DHT22;5842;52.426;4.886;2024-03-25T18:05:22;8.10;99.90
11573;DHT22;5842;52.426;4.886;2024-03-25T18:07:48;8.00;99.90
11573;DHT22;5842;52.426;4.886;2024-03-25T18:10:14;8.00;99.90
11573;DHT22;5842;52.426;4.886;2024-03-25T18:12:40;7.90;99.90
11573;DHT22;5842;52.426;4.886;2024-03-25T18:17:33;7.70;99.90
11573;DHT22;5842;52.426;4.886;2024-03-25T18:20:00;7.70;99.90
11573;DHT22;5842;52.426;4.886;2024-03-25T18:24:52;7.50;99.90
11573;DHT22;5842;52.426;4.886;2024-03-25T18:29:46;7.40;99.90
11573;DHT22;5842;52.426;4.886;2024-03-25T18:32:12;7.40;99.90
11573;DHT22;5842;52.426;4.886;2024-03-25T18:34:38;7.40;99.90
11573;DHT22;5842;52.426;4.886;2024-03-25T18:39:33;7.20;99.90
11573;DHT22;5842;52.426;4.886;2024-03-25T18:41:59;7.20;99.90
11573;DHT22;5842;52.426;4.886;2024-03-25T18:51:43;6.70;99.90
11573;DHT22;5842;52.426;4.886;2024-03-25T19:08:54;6.50;99.90
11573;DHT22;5842;52.426;4.886;2024-03-25T19:11:21;6.60;99.90
11573;DHT22;5842;52.426;4.886;2024-03-25T19:16:13;6.50;99.90
11573;DHT22;5842;52.426;4.886;2024-03-25T19:18:39;6.50;99.90
11573;DHT22;5842;52.426;4.886;2024-03-25T19:21:05;6.40;99.90
11573;DHT22;5842;52.426;4.886;2024-03-25T19:23:31;6.60;99.90
11573;DHT22;5842;52.426;4.886;2024-03-25T19:25:57;6.60;99.90
11573;DHT22;5842;52.426;4.886;2024-03-25T19:28:24;6.50;99.90
11573;DHT22;5842;52.426;4.886;2024-03-25T19:30:50;6.50;99.90
11573;DHT22;5842;52.426;4.886;2024-03-25T19:33:16;6.60;99.90
